sensor_id;sensor_type;location;lat;lon;timestamp;pressure;altitude;pressure_sealevel;temperature;humidity
50282;BME280;36176;51.506;10.272;2023-03-19T00:00:29;99131.66;;;9.09;89.05
50282;BME280;36176;51.506;10.272;2023-03-19T00:02:56;99133.41;;;9.10;89.38
50282;BME280;36176;51.506;10.272;2023-03-19T00:05:23;99125.47;;;9.10;89.60
50282;BME280;36176;51.506;10.272;2023-03-19T00:07:50;99129.03;;;9.09;89.94
50282;BME280;36176;51.506;10.272;2023-03-19T00:10:17;99133.47;;;9.08;88.91
50282;BME280;36176;51.506;10.272;2023-03-19T00:12:44;99142.09;;;9.12;89.29
50282;BME280;36176;51.506;10.272;2023-03-19T00:15:11;99141.88;;;9.16;89.05
50282;BME280;36176;51.506;10.272;2023-03-19T00:17:41;99142.66;;;9.19;88.50
50282;BME280;36176;51.506;10.272;2023-03-19T00:20:10;99148.75;;;9.21;88.65
50282;BME280;36176;51.506;10.272;2023-03-19T00:22:38;99151.97;;;9.27;87.91
50282;BME280;36176;51.506;10.272;2023-03-19T00:25:06;99150.13;;;9.29;88.80
50282;BME280;36176;51.506;10.272;2023-03-19T00:27:35;99146.38;;;9.33;87.93
50282;BME280;36176;51.506;10.272;2023-03-19T00:30:06;99147.94;;;9.37;87.45
50282;BME280;36176;51.506;10.272;2023-03-19T00:32:34;99140.81;;;9.40;87.27
50282;BME280;36176;51.506;10.272;2023-03-19T00:35:03;99149.53;;;9.42;86.91
50282;BME280;36176;51.506;10.272;2023-03-19T00:37:32;99142.81;;;9.34;86.67
50282;BME280;36176;51.506;10.272;2023-03-19T00:40:00;99144.81;;;9.29;86.93
50282;BME280;36176;51.506;10.272;2023-03-19T00:42:28;99151.19;;;9.25;87.23
50282;BME280;36176;51.506;10.272;2023-03-19T00:44:55;99153.41;;;9.15;87.19
50282;BME280;36176;51.506;10.272;2023-03-19T00:47:22;99158.25;;;9.06;86.66
50282;BME280;36176;51.506;10.272;2023-03-19T00:49:49;99151.53;;;8.99;87.19
50282;BME280;36176;51.506;10.272;2023-03-19T00:52:17;99154.38;;;8.94;86.85
50282;BME280;36176;51.506;10.272;2023-03-19T00:54:43;99159.72;;;8.92;88.35
50282;BME280;36176;51.506;10.272;2023-03-19T00:57:11;99156.22;;;8.92;87.75
50282;BME280;36176;51.506;10.272;2023-03-19T00:59:38;99152.66;;;8.93;88.74
50282;BME280;36176;51.506;10.272;2023-03-19T01:02:05;99148.50;;;8.87;88.55
50282;BME280;36176;51.506;10.272;2023-03-19T01:04:31;99155.00;;;8.80;88.94
50282;BME280;36176;51.506;10.272;2023-03-19T01:06:59;99156.06;;;8.76;89.59
50282;BME280;36176;51.506;10.272;2023-03-19T01:09:29;99159.63;;;8.75;89.94
50282;BME280;36176;51.506;10.272;2023-03-19T01:11:56;99148.06;;;8.78;89.75
50282;BME280;36176;51.506;10.272;2023-03-19T01:14:23;99155.78;;;8.82;89.66
50282;BME280;36176;51.506;10.272;2023-03-19T01:16:50;99155.63;;;8.85;88.88
50282;BME280;36176;51.506;10.272;2023-03-19T01:19:17;99153.78;;;8.87;88.57
50282;BME280;36176;51.506;10.272;2023-03-19T01:21:45;99157.06;;;8.92;88.78
50282;BME280;36176;51.506;10.272;2023-03-19T01:24:12;99168.22;;;8.99;87.92
50282;BME280;36176;51.506;10.272;2023-03-19T01:26:39;99157.47;;;9.04;88.10
50282;BME280;36176;51.506;10.272;2023-03-19T01:29:07;99155.06;;;8.98;88.40
50282;BME280;36176;51.506;10.272;2023-03-19T01:31:35;99157.66;;;8.99;88.03
50282;BME280;36176;51.506;10.272;2023-03-19T01:34:03;99142.03;;;8.94;89.07
50282;BME280;36176;51.506;10.272;2023-03-19T01:36:30;99152.78;;;8.90;89.83
50282;BME280;36176;51.506;10.272;2023-03-19T01:38:57;99141.63;;;8.83;90.40
50282;BME280;36176;51.506;10.272;2023-03-19T01:41:24;99138.28;;;8.80;91.11
50282;BME280;36176;51.506;10.272;2023-03-19T01:43:51;99128.09;;;8.72;92.49
50282;BME280;36176;51.506;10.272;2023-03-19T01:46:27;99142.53;;;8.63;93.13
50282;BME280;36176;51.506;10.272;2023-03-19T01:48:59;99146.19;;;8.61;92.77
50282;BME280;36176;51.506;10.272;2023-03-19T01:51:29;99143.41;;;8.64;92.59
50282;BME280;36176;51.506;10.272;2023-03-19T01:53:59;99140.75;;;8.64;92.86
50282;BME280;36176;51.506;10.272;2023-03-19T01:56:33;99131.91;;;8.65;93.16
50282;BME280;36176;51.506;10.272;2023-03-19T01:59:17;99130.78;;;8.70;92.67
50282;BME280;36176;51.506;10.272;2023-03-19T02:02:07;99137.56;;;8.76;93.00
50282;BME280;36176;51.506;10.272;2023-03-19T02:04:37;99131.28;;;8.79;92.70
50282;BME280;36176;51.506;10.272;2023-03-19T02:07:05;99143.63;;;8.78;93.41
50282;BME280;36176;51.506;10.272;2023-03-19T02:09:33;99140.19;;;8.76;93.52
50282;BME280;36176;51.506;10.272;2023-03-19T02:12:00;99147.81;;;8.84;93.36
50282;BME280;36176;51.506;10.272;2023-03-19T02:14:28;99147.50;;;8.90;92.34
50282;BME280;36176;51.506;10.272;2023-03-19T02:16:55;99142.81;;;8.97;92.57
50282;BME280;36176;51.506;10.272;2023-03-19T02:19:31;99139.09;;;9.01;91.84
50282;BME280;36176;51.506;10.272;2023-03-19T02:22:02;99140.88;;;9.00;92.37
50282;BME280;36176;51.506;10.272;2023-03-19T02:25:08;99137.25;;;9.03;93.02
50282;BME280;36176;51.506;10.272;2023-03-19T02:27:36;99131.97;;;9.03;92.93
50282;BME280;36176;51.506;10.272;2023-03-19T02:30:22;99138.69;;;9.10;92.34
50282;BME280;36176;51.506;10.272;2023-03-19T02:32:50;99145.69;;;9.11;91.69
50282;BME280;36176;51.506;10.272;2023-03-19T02:35:17;99146.38;;;9.14;92.42
50282;BME280;36176;51.506;10.272;2023-03-19T02:37:44;99144.72;;;9.12;92.25
50282;BME280;36176;51.506;10.272;2023-03-19T02:40:17;99143.09;;;9.09;93.26
50282;BME280;36176;51.506;10.272;2023-03-19T02:42:45;99138.31;;;8.99;92.61
50282;BME280;36176;51.506;10.272;2023-03-19T02:45:13;99135.09;;;8.92;92.81
50282;BME280;36176;51.506;10.272;2023-03-19T02:47:40;99137.94;;;8.87;92.76
50282;BME280;36176;51.506;10.272;2023-03-19T02:50:08;99131.88;;;8.85;92.88
50282;BME280;36176;51.506;10.272;2023-03-19T02:52:35;99131.06;;;8.83;92.76
50282;BME280;36176;51.506;10.272;2023-03-19T02:55:02;99131.22;;;8.80;92.71
50282;BME280;36176;51.506;10.272;2023-03-19T02:57:29;99128.56;;;8.80;92.69
50282;BME280;36176;51.506;10.272;2023-03-19T02:59:56;99131.22;;;8.80;92.97
50282;BME280;36176;51.506;10.272;2023-03-19T03:02:24;99139.94;;;8.82;92.75
50282;BME280;36176;51.506;10.272;2023-03-19T03:04:51;99137.34;;;8.81;92.69
50282;BME280;36176;51.506;10.272;2023-03-19T03:07:18;99143.44;;;8.83;92.28
50282;BME280;36176;51.506;10.272;2023-03-19T03:09:45;99145.00;;;8.87;91.94
50282;BME280;36176;51.506;10.272;2023-03-19T03:12:12;99143.06;;;8.90;91.67
50282;BME280;36176;51.506;10.272;2023-03-19T03:14:39;99145.88;;;8.87;91.87
50282;BME280;36176;51.506;10.272;2023-03-19T03:17:07;99149.66;;;8.82;91.72
50282;BME280;36176;51.506;10.272;2023-03-19T03:19:34;99146.28;;;8.78;92.50
50282;BME280;36176;51.506;10.272;2023-03-19T03:22:02;99142.84;;;8.76;91.59
50282;BME280;36176;51.506;10.272;2023-03-19T03:24:29;99143.94;;;8.72;92.87
50282;BME280;36176;51.506;10.272;2023-03-19T03:26:56;99149.31;;;8.69;92.63
50282;BME280;36176;51.506;10.272;2023-03-19T03:29:23;99156.41;;;8.68;92.78
50282;BME280;36176;51.506;10.272;2023-03-19T03:31:49;99157.41;;;8.66;93.31
50282;BME280;36176;51.506;10.272;2023-03-19T03:34:17;99159.19;;;8.65;94.08
50282;BME280;36176;51.506;10.272;2023-03-19T03:36:44;99148.63;;;8.65;93.62
50282;BME280;36176;51.506;10.272;2023-03-19T03:39:12;99152.75;;;8.71;94.07
50282;BME280;36176;51.506;10.272;2023-03-19T03:41:40;99151.75;;;8.73;93.21
50282;BME280;36176;51.506;10.272;2023-03-19T03:44:07;99155.34;;;8.72;93.96
50282;BME280;36176;51.506;10.272;2023-03-19T03:46:34;99147.56;;;8.69;94.21
50282;BME280;36176;51.506;10.272;2023-03-19T03:49:01;99143.41;;;8.64;94.43
50282;BME280;36176;51.506;10.272;2023-03-19T03:51:28;99145.38;;;8.59;94.09
50282;BME280;36176;51.506;10.272;2023-03-19T03:53:55;99154.34;;;8.55;94.09
50282;BME280;36176;51.506;10.272;2023-03-19T03:56:22;99159.88;;;8.50;94.57
50282;BME280;36176;51.506;10.272;2023-03-19T03:58:49;99157.66;;;8.39;95.61
50282;BME280;36176;51.506;10.272;2023-03-19T04:01:17;99151.66;;;8.36;95.60
50282;BME280;36176;51.506;10.272;2023-03-19T04:03:44;99152.63;;;8.33;95.44
50282;BME280;36176;51.506;10.272;2023-03-19T04:06:14;99158.19;;;8.27;95.78
50282;BME280;36176;51.506;10.272;2023-03-19T04:08:42;99157.44;;;8.23;96.11
50282;BME280;36176;51.506;10.272;2023-03-19T04:11:09;99144.44;;;8.19;96.50
50282;BME280;36176;51.506;10.272;2023-03-19T04:13:36;99144.31;;;8.22;96.66
50282;BME280;36176;51.506;10.272;2023-03-19T04:16:08;99147.63;;;8.27;96.76
50282;BME280;36176;51.506;10.272;2023-03-19T04:18:36;99141.41;;;8.28;97.04
50282;BME280;36176;51.506;10.272;2023-03-19T04:21:04;99142.34;;;8.27;96.45
50282;BME280;36176;51.506;10.272;2023-03-19T04:23:32;99147.81;;;8.22;96.02
50282;BME280;36176;51.506;10.272;2023-03-19T04:26:00;99148.00;;;8.18;96.22
50282;BME280;36176;51.506;10.272;2023-03-19T04:28:28;99150.84;;;8.13;96.09
50282;BME280;36176;51.506;10.272;2023-03-19T04:31:03;99155.28;;;8.13;95.89
50282;BME280;36176;51.506;10.272;2023-03-19T04:33:31;99158.09;;;8.08;95.57
50282;BME280;36176;51.506;10.272;2023-03-19T04:35:59;99162.44;;;8.09;95.95
50282;BME280;36176;51.506;10.272;2023-03-19T04:38:26;99164.09;;;8.12;95.21
50282;BME280;36176;51.506;10.272;2023-03-19T04:40:54;99165.69;;;8.16;95.58
50282;BME280;36176;51.506;10.272;2023-03-19T04:43:22;99171.63;;;8.21;95.17
50282;BME280;36176;51.506;10.272;2023-03-19T04:45:50;99170.59;;;8.25;94.92
50282;BME280;36176;51.506;10.272;2023-03-19T04:48:17;99173.09;;;8.28;94.15
50282;BME280;36176;51.506;10.272;2023-03-19T04:50:44;99171.31;;;8.28;94.48
50282;BME280;36176;51.506;10.272;2023-03-19T04:53:12;99171.25;;;8.30;94.01
50282;BME280;36176;51.506;10.272;2023-03-19T04:55:39;99165.81;;;8.33;93.71
50282;BME280;36176;51.506;10.272;2023-03-19T04:58:06;99179.81;;;8.35;94.21
50282;BME280;36176;51.506;10.272;2023-03-19T05:00:35;99178.06;;;8.36;93.89
50282;BME280;36176;51.506;10.272;2023-03-19T05:03:02;99171.78;;;8.38;93.65
50282;BME280;36176;51.506;10.272;2023-03-19T05:05:28;99167.31;;;8.40;93.83
50282;BME280;36176;51.506;10.272;2023-03-19T05:07:55;99171.69;;;8.41;93.41
50282;BME280;36176;51.506;10.272;2023-03-19T05:10:23;99169.88;;;8.42;93.50
50282;BME280;36176;51.506;10.272;2023-03-19T05:12:50;99170.84;;;8.39;93.65
50282;BME280;36176;51.506;10.272;2023-03-19T05:15:17;99177.00;;;8.40;93.52
50282;BME280;36176;51.506;10.272;2023-03-19T05:17:44;99170.06;;;8.37;93.68
50282;BME280;36176;51.506;10.272;2023-03-19T05:20:11;99175.41;;;8.36;94.06
50282;BME280;36176;51.506;10.272;2023-03-19T05:22:38;99176.31;;;8.35;93.63
50282;BME280;36176;51.506;10.272;2023-03-19T05:25:07;99182.41;;;8.37;93.42
50282;BME280;36176;51.506;10.272;2023-03-19T05:27:34;99181.41;;;8.39;93.13
50282;BME280;36176;51.506;10.272;2023-03-19T05:30:01;99185.69;;;8.43;92.68
50282;BME280;36176;51.506;10.272;2023-03-19T05:32:28;99185.53;;;8.46;92.62
50282;BME280;36176;51.506;10.272;2023-03-19T05:34:55;99185.78;;;8.40;92.55
50282;BME280;36176;51.506;10.272;2023-03-19T05:37:22;99200.88;;;8.37;92.20
50282;BME280;36176;51.506;10.272;2023-03-19T05:39:50;99197.25;;;8.39;92.74
50282;BME280;36176;51.506;10.272;2023-03-19T05:42:17;99201.56;;;8.42;92.81
50282;BME280;36176;51.506;10.272;2023-03-19T05:44:44;99194.59;;;8.41;93.02
50282;BME280;36176;51.506;10.272;2023-03-19T05:47:10;99205.06;;;8.42;93.63
50282;BME280;36176;51.506;10.272;2023-03-19T05:49:37;99204.94;;;8.45;93.18
50282;BME280;36176;51.506;10.272;2023-03-19T05:52:05;99214.44;;;8.49;93.52
50282;BME280;36176;51.506;10.272;2023-03-19T05:54:32;99200.34;;;8.50;93.57
50282;BME280;36176;51.506;10.272;2023-03-19T05:56:58;99196.88;;;8.48;93.38
50282;BME280;36176;51.506;10.272;2023-03-19T05:59:26;99203.03;;;8.49;93.98
50282;BME280;36176;51.506;10.272;2023-03-19T06:01:53;99198.53;;;8.51;93.81
50282;BME280;36176;51.506;10.272;2023-03-19T06:04:20;99203.78;;;8.52;93.63
50282;BME280;36176;51.506;10.272;2023-03-19T06:06:47;99216.09;;;8.52;93.48
50282;BME280;36176;51.506;10.272;2023-03-19T06:09:14;99215.22;;;8.51;93.66
50282;BME280;36176;51.506;10.272;2023-03-19T06:11:41;99213.53;;;8.50;93.29
50282;BME280;36176;51.506;10.272;2023-03-19T06:14:08;99227.53;;;8.52;93.78
50282;BME280;36176;51.506;10.272;2023-03-19T06:16:35;99230.94;;;8.55;93.81
50282;BME280;36176;51.506;10.272;2023-03-19T06:19:03;99225.53;;;8.58;93.52
50282;BME280;36176;51.506;10.272;2023-03-19T06:21:30;99222.91;;;8.58;93.36
50282;BME280;36176;51.506;10.272;2023-03-19T06:23:57;99216.69;;;8.59;93.36
50282;BME280;36176;51.506;10.272;2023-03-19T06:26:24;99222.63;;;8.64;92.92
50282;BME280;36176;51.506;10.272;2023-03-19T06:28:52;99217.09;;;8.70;93.00
50282;BME280;36176;51.506;10.272;2023-03-19T06:31:19;99218.53;;;8.77;92.78
50282;BME280;36176;51.506;10.272;2023-03-19T06:33:47;99226.13;;;8.85;92.28
50282;BME280;36176;51.506;10.272;2023-03-19T06:36:16;99228.41;;;8.92;92.28
50282;BME280;36176;51.506;10.272;2023-03-19T06:38:43;99237.00;;;8.98;92.77
50282;BME280;36176;51.506;10.272;2023-03-19T06:41:11;99232.50;;;9.00;92.52
50282;BME280;36176;51.506;10.272;2023-03-19T06:43:38;99243.66;;;9.06;92.39
50282;BME280;36176;51.506;10.272;2023-03-19T06:46:08;99254.97;;;9.10;92.74
50282;BME280;36176;51.506;10.272;2023-03-19T06:48:37;99250.53;;;9.10;92.59
50282;BME280;36176;51.506;10.272;2023-03-19T06:51:04;99253.31;;;9.07;93.10
50282;BME280;36176;51.506;10.272;2023-03-19T06:53:32;99258.53;;;9.09;92.64
50282;BME280;36176;51.506;10.272;2023-03-19T06:55:59;99264.47;;;9.14;92.61
50282;BME280;36176;51.506;10.272;2023-03-19T06:58:26;99261.22;;;9.07;94.78
50282;BME280;36176;51.506;10.272;2023-03-19T07:00:53;99267.47;;;9.06;94.75
50282;BME280;36176;51.506;10.272;2023-03-19T07:03:21;99263.88;;;9.07;95.75
50282;BME280;36176;51.506;10.272;2023-03-19T07:05:49;99275.31;;;9.08;95.24
50282;BME280;36176;51.506;10.272;2023-03-19T07:08:17;99276.19;;;9.08;95.64
50282;BME280;36176;51.506;10.272;2023-03-19T07:10:44;99278.88;;;9.07;95.29
50282;BME280;36176;51.506;10.272;2023-03-19T07:13:12;99279.06;;;9.02;95.98
50282;BME280;36176;51.506;10.272;2023-03-19T07:15:39;99287.94;;;9.01;95.70
50282;BME280;36176;51.506;10.272;2023-03-19T07:18:06;99301.09;;;9.03;96.22
50282;BME280;36176;51.506;10.272;2023-03-19T07:20:33;99308.34;;;8.98;97.79
50282;BME280;36176;51.506;10.272;2023-03-19T07:23:00;99307.28;;;9.02;97.95
50282;BME280;36176;51.506;10.272;2023-03-19T07:25:27;99295.69;;;9.06;98.02
50282;BME280;36176;51.506;10.272;2023-03-19T07:27:54;99294.63;;;9.10;97.60
50282;BME280;36176;51.506;10.272;2023-03-19T07:30:22;99296.97;;;9.16;97.54
50282;BME280;36176;51.506;10.272;2023-03-19T07:32:49;99299.63;;;9.16;97.98
50282;BME280;36176;51.506;10.272;2023-03-19T07:35:16;99296.56;;;9.25;98.47
50282;BME280;36176;51.506;10.272;2023-03-19T07:37:43;99302.09;;;9.40;98.36
50282;BME280;36176;51.506;10.272;2023-03-19T07:40:11;99299.06;;;9.49;98.35
50282;BME280;36176;51.506;10.272;2023-03-19T07:42:39;99292.03;;;9.48;98.05
50282;BME280;36176;51.506;10.272;2023-03-19T07:45:06;99290.53;;;9.42;97.69
50282;BME280;36176;51.506;10.272;2023-03-19T07:47:33;99292.72;;;9.32;98.46
50282;BME280;36176;51.506;10.272;2023-03-19T07:50:00;99289.16;;;9.33;97.86
50282;BME280;36176;51.506;10.272;2023-03-19T07:52:27;99291.78;;;9.33;98.58
50282;BME280;36176;51.506;10.272;2023-03-19T07:54:54;99290.72;;;9.37;98.75
50282;BME280;36176;51.506;10.272;2023-03-19T07:57:21;99287.53;;;9.50;98.67
50282;BME280;36176;51.506;10.272;2023-03-19T07:59:48;99289.59;;;9.62;98.34
50282;BME280;36176;51.506;10.272;2023-03-19T08:02:15;99295.25;;;9.73;98.34
50282;BME280;36176;51.506;10.272;2023-03-19T08:04:42;99293.91;;;9.84;97.90
50282;BME280;36176;51.506;10.272;2023-03-19T08:07:09;99301.50;;;9.91;98.07
50282;BME280;36176;51.506;10.272;2023-03-19T08:09:38;99302.00;;;9.99;97.59
50282;BME280;36176;51.506;10.272;2023-03-19T08:12:06;99303.19;;;10.11;97.51
50282;BME280;36176;51.506;10.272;2023-03-19T08:14:34;99306.63;;;10.32;97.43
50282;BME280;36176;51.506;10.272;2023-03-19T08:17:01;99306.59;;;10.51;97.31
50282;BME280;36176;51.506;10.272;2023-03-19T08:19:28;99307.69;;;10.64;96.70
50282;BME280;36176;51.506;10.272;2023-03-19T08:21:55;99311.50;;;10.76;95.35
50282;BME280;36176;51.506;10.272;2023-03-19T08:24:22;99302.13;;;10.86;95.08
50282;BME280;36176;51.506;10.272;2023-03-19T08:26:49;99310.47;;;10.96;94.04
50282;BME280;36176;51.506;10.272;2023-03-19T08:29:16;99306.88;;;11.15;94.54
50282;BME280;36176;51.506;10.272;2023-03-19T08:31:44;99307.19;;;11.26;93.20
50282;BME280;36176;51.506;10.272;2023-03-19T08:34:12;99310.38;;;11.33;93.19
50282;BME280;36176;51.506;10.272;2023-03-19T08:36:39;99298.41;;;11.41;93.22
50282;BME280;36176;51.506;10.272;2023-03-19T08:39:06;99302.91;;;11.57;93.77
50282;BME280;36176;51.506;10.272;2023-03-19T08:41:33;99305.16;;;11.64;92.81
50282;BME280;36176;51.506;10.272;2023-03-19T08:43:59;99303.63;;;11.76;92.34
50282;BME280;36176;51.506;10.272;2023-03-19T08:46:27;99305.91;;;11.82;91.82
50282;BME280;36176;51.506;10.272;2023-03-19T08:48:55;99309.06;;;11.90;91.66
50282;BME280;36176;51.506;10.272;2023-03-19T08:51:22;99309.59;;;11.97;92.07
50282;BME280;36176;51.506;10.272;2023-03-19T08:53:52;99305.66;;;12.04;90.91
50282;BME280;36176;51.506;10.272;2023-03-19T08:56:19;99306.31;;;12.08;90.71
50282;BME280;36176;51.506;10.272;2023-03-19T08:58:46;99302.56;;;12.12;90.89
50282;BME280;36176;51.506;10.272;2023-03-19T09:01:13;99311.03;;;12.19;90.52
50282;BME280;36176;51.506;10.272;2023-03-19T09:03:42;99313.84;;;12.31;90.85
50282;BME280;36176;51.506;10.272;2023-03-19T09:06:10;99318.19;;;12.48;90.66
50282;BME280;36176;51.506;10.272;2023-03-19T09:08:37;99314.63;;;12.64;89.92
50282;BME280;36176;51.506;10.272;2023-03-19T09:11:05;99319.34;;;12.74;89.16
50282;BME280;36176;51.506;10.272;2023-03-19T09:13:32;99321.47;;;12.84;88.60
50282;BME280;36176;51.506;10.272;2023-03-19T09:15:59;99323.72;;;13.06;88.98
50282;BME280;36176;51.506;10.272;2023-03-19T09:18:27;99312.66;;;13.28;88.14
50282;BME280;36176;51.506;10.272;2023-03-19T09:20:54;99314.28;;;13.45;86.77
50282;BME280;36176;51.506;10.272;2023-03-19T09:23:21;99318.94;;;13.84;86.57
50282;BME280;36176;51.506;10.272;2023-03-19T09:25:48;99327.00;;;14.11;84.42
50282;BME280;36176;51.506;10.272;2023-03-19T09:28:16;99325.31;;;14.37;84.25
50282;BME280;36176;51.506;10.272;2023-03-19T09:30:46;99325.38;;;14.77;83.39
50282;BME280;36176;51.506;10.272;2023-03-19T09:33:15;99328.34;;;15.25;82.21
50282;BME280;36176;51.506;10.272;2023-03-19T09:35:42;99329.53;;;15.60;77.11
50282;BME280;36176;51.506;10.272;2023-03-19T09:38:09;99330.47;;;15.97;78.39
50282;BME280;36176;51.506;10.272;2023-03-19T09:40:46;99329.13;;;16.28;74.03
50282;BME280;36176;51.506;10.272;2023-03-19T09:43:20;99326.97;;;16.57;75.57
50282;BME280;36176;51.506;10.272;2023-03-19T09:45:51;99327.72;;;16.84;74.23
50282;BME280;36176;51.506;10.272;2023-03-19T09:48:29;99325.97;;;17.07;70.36
50282;BME280;36176;51.506;10.272;2023-03-19T09:50:58;99327.34;;;17.12;70.75
50282;BME280;36176;51.506;10.272;2023-03-19T09:53:33;99327.91;;;17.05;70.15
50282;BME280;36176;51.506;10.272;2023-03-19T09:56:04;99319.88;;;17.05;72.77
50282;BME280;36176;51.506;10.272;2023-03-19T09:58:34;99321.63;;;17.28;71.94
50282;BME280;36176;51.506;10.272;2023-03-19T10:01:01;99316.56;;;17.59;70.91
50282;BME280;36176;51.506;10.272;2023-03-19T10:16:31;99322.97;;;19.32;61.62
50282;BME280;36176;51.506;10.272;2023-03-19T10:19:01;99323.97;;;19.10;58.27
50282;BME280;36176;51.506;10.272;2023-03-19T10:21:32;99320.09;;;19.03;54.75
50282;BME280;36176;51.506;10.272;2023-03-19T10:24:46;99318.97;;;19.05;53.31
50282;BME280;36176;51.506;10.272;2023-03-19T10:26:55;99324.94;;;18.88;53.88
50282;BME280;36176;51.506;10.272;2023-03-19T10:29:24;99320.88;;;18.94;52.67
50282;BME280;36176;51.506;10.272;2023-03-19T10:36:57;99316.25;;;19.17;53.63
50282;BME280;36176;51.506;10.272;2023-03-19T10:39:25;99321.28;;;19.10;50.96
50282;BME280;36176;51.506;10.272;2023-03-19T10:44:47;99321.53;;;18.86;52.67
50282;BME280;36176;51.506;10.272;2023-03-19T10:47:15;99325.69;;;19.11;53.95
50282;BME280;36176;51.506;10.272;2023-03-19T10:49:42;99324.34;;;19.05;51.94
50282;BME280;36176;51.506;10.272;2023-03-19T10:52:20;99326.84;;;18.97;51.98
50282;BME280;36176;51.506;10.272;2023-03-19T10:54:47;99325.78;;;18.88;50.48
50282;BME280;36176;51.506;10.272;2023-03-19T10:57:22;99321.59;;;18.63;52.87
50282;BME280;36176;51.506;10.272;2023-03-19T10:59:50;99325.78;;;18.34;51.84
50282;BME280;36176;51.506;10.272;2023-03-19T11:02:18;99325.00;;;18.11;53.41
50282;BME280;36176;51.506;10.272;2023-03-19T11:04:46;99326.22;;;18.18;52.26
50282;BME280;36176;51.506;10.272;2023-03-19T11:07:14;99326.56;;;18.24;52.61
50282;BME280;36176;51.506;10.272;2023-03-19T11:09:44;99331.16;;;18.45;51.66
50282;BME280;36176;51.506;10.272;2023-03-19T11:14:41;99328.28;;;18.58;49.77
50282;BME280;36176;51.506;10.272;2023-03-19T11:17:19;99329.69;;;18.41;51.66
50282;BME280;36176;51.506;10.272;2023-03-19T11:19:53;99327.78;;;18.20;51.99
50282;BME280;36176;51.506;10.272;2023-03-19T11:22:22;99318.28;;;18.05;50.62
50282;BME280;36176;51.506;10.272;2023-03-19T11:24:51;99313.06;;;17.92;51.38
50282;BME280;36176;51.506;10.272;2023-03-19T11:27:18;99321.47;;;18.10;52.37
50282;BME280;36176;51.506;10.272;2023-03-19T11:29:45;99329.63;;;18.20;51.15
50282;BME280;36176;51.506;10.272;2023-03-19T11:32:33;99318.84;;;18.31;50.32
50282;BME280;36176;51.506;10.272;2023-03-19T11:35:09;99310.72;;;18.65;50.66
50282;BME280;36176;51.506;10.272;2023-03-19T11:40:26;99307.41;;;19.05;49.17
50282;BME280;36176;51.506;10.272;2023-03-19T11:50:49;99318.19;;;18.06;50.59
50282;BME280;36176;51.506;10.272;2023-03-19T12:00:53;99309.72;;;17.55;51.55
50282;BME280;36176;51.506;10.272;2023-03-19T12:03:40;99307.19;;;17.53;52.96
50282;BME280;36176;51.506;10.272;2023-03-19T12:08:38;99302.56;;;17.67;51.28
50282;BME280;36176;51.506;10.272;2023-03-19T12:11:27;99308.06;;;17.65;51.48
50282;BME280;36176;51.506;10.272;2023-03-19T12:14:04;99304.28;;;17.68;51.76
50282;BME280;36176;51.506;10.272;2023-03-19T12:22:12;99304.66;;;17.74;50.46
50282;BME280;36176;51.506;10.272;2023-03-19T12:24:51;99304.75;;;17.61;51.00
50282;BME280;36176;51.506;10.272;2023-03-19T12:27:27;99306.59;;;17.72;53.03
50282;BME280;36176;51.506;10.272;2023-03-19T12:30:17;99303.56;;;17.99;50.37
50282;BME280;36176;51.506;10.272;2023-03-19T12:32:55;99297.31;;;18.21;52.05
50282;BME280;36176;51.506;10.272;2023-03-19T12:35:33;99292.66;;;18.99;50.65
50282;BME280;36176;51.506;10.272;2023-03-19T12:42:58;99284.91;;;19.69;47.63
50282;BME280;36176;51.506;10.272;2023-03-19T12:45:35;99289.94;;;19.41;46.23
50282;BME280;36176;51.506;10.272;2023-03-19T12:48:08;99288.72;;;19.03;46.60
50282;BME280;36176;51.506;10.272;2023-03-19T12:50:38;99294.63;;;18.97;47.82
50282;BME280;36176;51.506;10.272;2023-03-19T12:53:25;99291.81;;;19.20;46.83
50282;BME280;36176;51.506;10.272;2023-03-19T12:55:55;99281.78;;;19.22;45.86
50282;BME280;36176;51.506;10.272;2023-03-19T12:58:29;99282.97;;;19.08;45.50
50282;BME280;36176;51.506;10.272;2023-03-19T13:01:02;99275.78;;;18.87;45.64
50282;BME280;36176;51.506;10.272;2023-03-19T13:06:05;99283.91;;;18.97;45.96
50282;BME280;36176;51.506;10.272;2023-03-19T13:08:36;99277.00;;;18.83;47.09
50282;BME280;36176;51.506;10.272;2023-03-19T13:11:11;99272.25;;;18.87;46.84
50282;BME280;36176;51.506;10.272;2023-03-19T13:13:44;99268.75;;;18.96;47.82
50282;BME280;36176;51.506;10.272;2023-03-19T13:21:25;99269.91;;;18.50;47.54
50282;BME280;36176;51.506;10.272;2023-03-19T13:23:58;99262.63;;;18.41;47.51
50282;BME280;36176;51.506;10.272;2023-03-19T13:26:27;99261.44;;;18.34;47.50
50282;BME280;36176;51.506;10.272;2023-03-19T13:31:24;99265.97;;;18.22;46.62
50282;BME280;36176;51.506;10.272;2023-03-19T13:33:59;99257.94;;;18.22;48.34
50282;BME280;36176;51.506;10.272;2023-03-19T13:36:28;99254.34;;;18.44;48.67
50282;BME280;36176;51.506;10.272;2023-03-19T13:38:56;99253.31;;;18.56;48.53
50282;BME280;36176;51.506;10.272;2023-03-19T13:42:09;99260.72;;;18.64;47.18
50282;BME280;36176;51.506;10.272;2023-03-19T13:46:48;99252.63;;;18.43;45.88
50282;BME280;36176;51.506;10.272;2023-03-19T13:51:48;99248.88;;;18.66;46.91
50282;BME280;36176;51.506;10.272;2023-03-19T13:54:15;99234.38;;;18.90;48.47
50282;BME280;36176;51.506;10.272;2023-03-19T13:59:27;99248.25;;;18.95;46.60
50282;BME280;36176;51.506;10.272;2023-03-19T14:01:55;99238.97;;;18.78;45.53
50282;BME280;36176;51.506;10.272;2023-03-19T14:04:29;99238.84;;;18.47;46.58
50282;BME280;36176;51.506;10.272;2023-03-19T14:07:19;99237.91;;;18.37;47.81
50282;BME280;36176;51.506;10.272;2023-03-19T14:09:48;99248.31;;;18.19;48.19
50282;BME280;36176;51.506;10.272;2023-03-19T14:14:44;99244.00;;;17.96;47.89
50282;BME280;36176;51.506;10.272;2023-03-19T14:17:17;99230.88;;;17.81;48.69
50282;BME280;36176;51.506;10.272;2023-03-19T14:19:46;99235.59;;;17.55;48.04
50282;BME280;36176;51.506;10.272;2023-03-19T14:22:18;99243.25;;;17.26;50.14